Time;durP1;ratioP1;P1;durP2;ratioP2;P2;SDS_P1;SDS_P2;PMS_P1;PMS_P2;Temp;Humidity;BMP_temperature;BMP_pressure;BME280_temperature;BME280_humidity;BME280_pressure;Samples;Min_cycle;Max_cycle;Signal;HPM_P1;HPM_P2
2022/01/02 00:01:12;;;;;;;10.75;4.97;;;;;;;11.43;87.67;101689.09;5076729;28;20023;-71
2022/01/02 00:03:39;;;;;;;10.93;5.10;;;;;;;11.20;88.13;101660.59;5094789;28;20031;-72
2022/01/02 00:06:07;;;;;;;13.57;5.53;;;;;;;11.41;88.37;101685.06;5094729;28;20395;-72
2022/01/02 00:08:46;;;;;;;9.18;5.15;;;;;;;11.42;88.18;101689.25;5076601;28;20110;-72
2022/01/02 00:11:20;;;;;;;14.50;4.93;;;;;;;11.35;88.56;101681.38;5095186;28;20024;-72
2022/01/02 00:13:47;;;;;;;12.75;5.50;;;;;;;11.35;88.58;101672.81;5094918;28;20103;-72
2022/01/02 00:16:17;;;;;;;16.30;5.80;;;;;;;11.34;88.79;101676.38;5076717;28;20065;-71
2022/01/02 00:18:51;;;;;;;12.98;4.93;;;;;;;11.37;89.12;101682.00;5076371;28;20584;-71
2022/01/02 00:21:17;;;;;;;11.30;5.07;;;;;;;11.40;89.03;101673.91;5076361;28;20072;-71
2022/01/02 00:23:56;;;;;;;11.55;5.25;;;;;;;11.33;89.15;101666.97;5076254;28;20035;-71
2022/01/02 00:26:34;;;;;;;13.10;5.38;;;;;;;11.37;89.50;101668.28;5094994;28;20028;-71
2022/01/02 00:29:00;;;;;;;13.52;5.22;;;;;;;11.33;89.55;101662.59;5094414;28;20020;-72
2022/01/02 00:31:26;;;;;;;16.02;5.53;;;;;;;11.29;90.22;101649.22;5076144;28;20031;-72
2022/01/02 00:33:53;;;;;;;15.23;5.70;;;;;;;11.22;90.77;101642.28;5093661;28;20024;-71
2022/01/02 00:36:18;;;;;;;14.15;5.43;;;;;;;11.16;91.39;101628.25;5094197;28;20034;-71
2022/01/02 00:38:43;;;;;;;11.40;5.38;;;;;;;11.13;91.62;101618.25;5094232;28;20111;-71
2022/01/02 00:41:09;;;;;;;13.45;5.40;;;;;;;11.12;91.68;101628.78;5094174;28;20485;-71
2022/01/02 00:43:41;;;;;;;10.95;5.30;;;;;;;11.08;92.76;101630.91;5094193;28;20027;-72
2022/01/02 00:46:09;;;;;;;11.27;5.67;;;;;;;11.08;92.62;101620.56;5075956;28;20026;-72
2022/01/02 00:48:39;;;;;;;18.05;6.10;;;;;;;11.00;92.92;101620.59;5094055;28;20347;-72
2022/01/02 00:51:29;;;;;;;18.05;5.70;;;;;;;11.05;93.16;101623.47;5093951;28;20035;-73
2022/01/02 00:53:58;;;;;;;14.60;5.93;;;;;;;11.09;93.40;101616.19;5075207;28;20032;-72
2022/01/02 00:56:27;;;;;;;16.77;6.25;;;;;;;11.06;93.40;101623.28;5075630;28;20556;-72
2022/01/02 00:59:00;;;;;;;13.38;5.88;;;;;;;11.04;93.57;101627.81;5075778;28;20026;-73
2022/01/02 01:01:35;;;;;;;17.58;5.88;;;;;;;11.11;93.69;101627.97;5093917;28;20020;-71
2022/01/02 01:04:02;;;;;;;16.60;6.35;;;;;;;11.13;93.24;101628.59;5075699;28;20123;-72
2022/01/02 01:06:33;;;;;;;13.27;5.80;;;;;;;11.15;93.21;101629.22;5075629;28;20042;-71
2022/01/02 01:09:03;;;;;;;13.48;5.60;;;;;;;11.12;93.45;101603.72;5093746;28;20031;-72
2022/01/02 01:11:28;;;;;;;15.50;5.82;;;;;;;11.17;93.78;101603.22;5093684;28;20032;-72
2022/01/02 01:13:55;;;;;;;13.20;5.45;;;;;;;11.14;93.58;101603.56;5093691;28;20023;-73
2022/01/02 01:16:21;;;;;;;14.38;5.65;;;;;;;10.90;93.98;101578.59;5075564;28;20035;-72
2022/01/02 01:18:47;;;;;;;11.77;5.65;;;;;;;11.11;94.27;101596.13;5075578;28;20024;-72
2022/01/02 01:21:13;;;;;;;18.10;6.35;;;;;;;11.07;94.23;101606.00;5075564;28;20479;-73
2022/01/02 01:23:39;;;;;;;13.55;5.43;;;;;;;11.09;94.17;101598.88;5075499;28;20024;-72
2022/01/02 01:26:07;;;;;;;14.57;6.00;;;;;;;11.09;94.27;101592.91;5093585;28;20081;-72
2022/01/02 01:28:34;;;;;;;15.93;5.60;;;;;;;11.09;94.21;101598.88;5075461;28;20047;-72
2022/01/02 01:30:59;;;;;;;15.48;5.93;;;;;;;11.07;94.07;101578.34;5075354;28;20024;-71
2022/01/02 01:33:25;;;;;;;13.60;5.97;;;;;;;11.09;94.23;101574.78;5075445;28;20043;-72
2022/01/02 01:35:50;;;;;;;16.48;5.75;;;;;;;11.17;94.58;101565.19;5093539;28;20020;-73
2022/01/02 01:38:15;;;;;;;16.63;5.35;;;;;;;11.10;94.56;101558.28;5075365;28;20428;-74
2022/01/02 01:40:50;;;;;;;18.15;5.72;;;;;;;11.22;94.09;101567.25;5093996;28;20095;-72
2022/01/02 01:43:16;;;;;;;13.25;5.53;;;;;;;11.20;94.10;101527.84;5092619;28;20382;-72
2022/01/02 01:45:42;;;;;;;15.27;5.60;;;;;;;11.21;94.17;101524.25;5094743;28;20043;-73
2022/01/02 01:48:08;;;;;;;19.23;5.45;;;;;;;11.23;93.92;101510.19;5079260;28;20024;-72
2022/01/02 01:50:37;;;;;;;16.92;5.47;;;;;;;11.23;94.03;101505.00;5097343;28;20024;-73
2022/01/02 01:53:03;;;;;;;14.65;5.10;;;;;;;11.23;94.04;101502.41;5078998;28;20024;-72
2022/01/02 01:55:29;;;;;;;13.60;5.25;;;;;;;11.29;93.87;101493.16;5097161;28;20428;-72
2022/01/02 01:57:54;;;;;;;18.67;5.57;;;;;;;11.23;94.17;101497.25;5097271;28;20048;-71
2022/01/02 02:00:22;;;;;;;20.40;5.60;;;;;;;11.25;94.03;101491.91;5079034;28;20059;-73
2022/01/02 02:02:47;;;;;;;14.75;5.82;;;;;;;11.27;94.09;101488.16;5079047;28;20363;-73
2022/01/02 02:05:13;;;;;;;15.48;5.40;;;;;;;11.26;94.06;101496.91;5097124;28;20027;-72
2022/01/02 02:07:40;;;;;;;13.15;4.95;;;;;;;11.30;94.22;101502.53;5097082;28;20531;-72
2022/01/02 02:10:13;;;;;;;20.63;5.47;;;;;;;11.30;93.83;101502.53;5096910;28;20027;-73
2022/01/02 02:12:41;;;;;;;13.45;5.03;;;;;;;11.23;93.98;101497.25;5078897;28;20489;-72
2022/01/02 02:15:08;;;;;;;12.13;5.35;;;;;;;11.29;93.84;101493.16;5096954;28;20050;-72
2022/01/02 02:17:34;;;;;;;18.98;4.82;;;;;;;11.32;93.79;101486.84;5097456;28;20099;-73
2022/01/02 02:20:17;;;;;;;14.38;5.32;;;;;;;11.32;93.70;101479.06;5078629;28;20031;-73
2022/01/02 02:22:46;;;;;;;16.50;4.82;;;;;;;11.42;93.20;101461.50;5078586;28;20034;-72
2022/01/02 02:25:16;;;;;;;12.63;4.63;;;;;;;11.42;92.82;101475.28;5078440;28;20020;-72
2022/01/02 02:27:58;;;;;;;11.88;5.07;;;;;;;11.48;92.60;101469.38;5078574;28;20115;-72
2022/01/02 02:30:26;;;;;;;16.47;4.77;;;;;;;11.57;92.36;101471.91;5096622;28;20020;-72
2022/01/02 02:32:54;;;;;;;16.27;4.45;;;;;;;11.58;92.72;101461.34;5096632;28;20137;-73
2022/01/02 02:35:20;;;;;;;18.65;4.93;;;;;;;11.61;92.08;101448.06;5096542;28;20394;-72
2022/01/02 02:37:46;;;;;;;16.70;4.25;;;;;;;11.67;92.01;101444.75;5078353;28;20020;-73
2022/01/02 02:40:14;;;;;;;13.00;4.93;;;;;;;11.66;92.30;101429.41;5096599;28;20478;-72
2022/01/02 02:42:48;;;;;;;13.23;4.70;;;;;;;11.64;92.18;101433.97;5096422;28;20031;-72
2022/01/02 02:51:01;;;;;;;11.77;4.75;;;;;;;11.64;92.02;101428.78;5096226;28;20032;-72
2022/01/02 02:53:27;;;;;;;15.23;4.45;;;;;;;11.72;92.16;101434.69;5078015;28;20056;-72
2022/01/02 02:55:56;;;;;;;13.02;4.38;;;;;;;11.72;91.91;101426.91;5096111;28;20083;-73
2022/01/02 02:58:41;;;;;;;13.52;4.45;;;;;;;11.74;91.78;101426.75;5095348;28;20022;-73
2022/01/02 03:01:06;;;;;;;12.18;4.10;;;;;;;11.74;92.04;101409.41;5077971;28;20031;-73
2022/01/02 03:03:32;;;;;;;15.40;4.95;;;;;;;11.74;92.10;101417.19;5077804;28;20110;-73
2022/01/02 03:05:57;;;;;;;15.85;4.60;;;;;;;11.73;91.91;101412.19;5095997;28;20031;-73
2022/01/02 03:08:23;;;;;;;19.38;4.57;;;;;;;11.74;91.44;101408.63;5077816;28;20020;-73
2022/01/02 03:10:48;;;;;;;14.82;4.22;;;;;;;11.81;91.46;101409.50;5095787;28;20017;-72
2022/01/02 03:13:13;;;;;;;11.80;4.43;;;;;;;11.86;91.12;101401.22;5095798;28;20066;-73
2022/01/02 03:15:39;;;;;;;17.05;4.65;;;;;;;11.86;91.22;101394.25;5095813;28;20016;-72
2022/01/02 03:18:04;;;;;;;10.55;4.03;;;;;;;11.82;91.74;101397.34;5095778;28;20027;-73
2022/01/02 03:20:29;;;;;;;14.60;4.40;;;;;;;11.90;90.90;101402.47;5095659;28;20066;-73
2022/01/02 03:22:55;;;;;;;16.10;4.57;;;;;;;11.94;90.72;101407.13;5095651;28;20024;-72
2022/01/02 03:25:20;;;;;;;13.00;4.18;;;;;;;11.96;91.22;101418.09;5095617;28;20028;-72
2022/01/02 03:27:45;;;;;;;16.40;4.15;;;;;;;11.95;91.45;101424.25;5095844;28;20039;-72
2022/01/02 03:30:12;;;;;;;18.10;4.00;;;;;;;11.92;91.55;101416.06;5095388;28;20026;-72
2022/01/02 03:32:38;;;;;;;11.48;3.97;;;;;;;11.98;91.25;101411.94;5077199;28;20028;-72
2022/01/02 03:35:05;;;;;;;13.93;3.80;;;;;;;11.94;91.59;101407.13;5095420;28;20024;-72
2022/01/02 03:37:33;;;;;;;14.40;3.88;;;;;;;12.00;90.84;101405.59;5095380;28;20386;-72
2022/01/02 03:39:59;;;;;;;17.85;3.78;;;;;;;12.08;90.21;101407.25;5077202;28;20030;-72
2022/01/02 03:42:24;;;;;;;12.77;3.70;;;;;;;12.10;90.11;101400.13;5095224;28;20474;-73
2022/01/02 03:44:50;;;;;;;12.30;3.47;;;;;;;12.10;90.10;101393.16;5077114;28;20115;-72
2022/01/02 03:47:15;;;;;;;14.05;3.78;;;;;;;12.10;90.22;101397.53;5077145;28;20035;-72
2022/01/02 03:49:40;;;;;;;15.70;4.03;;;;;;;12.10;90.20;101379.41;5076906;28;20070;-73
2022/01/02 03:52:06;;;;;;;11.98;3.60;;;;;;;12.10;90.35;101387.16;5095319;28;20055;-72
2022/01/02 03:54:31;;;;;;;16.27;3.90;;;;;;;12.04;91.13;101373.16;5094745;28;20020;-73
2022/01/02 03:56:56;;;;;;;13.65;3.90;;;;;;;11.99;91.76;101364.31;5095060;28;20111;-72
2022/01/02 03:59:22;;;;;;;18.70;4.40;;;;;;;11.97;91.91;101367.09;5076720;28;20028;-72
2022/01/02 04:01:47;;;;;;;11.80;3.65;;;;;;;11.92;91.94;101364.25;5076762;28;20466;-72
2022/01/02 04:04:13;;;;;;;13.15;3.83;;;;;;;11.91;92.36;101362.63;5094794;28;20466;-71
2022/01/02 04:06:38;;;;;;;13.52;4.78;;;;;;;11.94;91.89;101350.13;5076884;28;20495;-72
2022/01/02 04:09:03;;;;;;;13.73;4.03;;;;;;;11.94;91.76;101350.13;5075530;28;20027;-72
2022/01/02 04:11:29;;;;;;;12.50;3.78;;;;;;;11.99;91.65;101357.34;5094569;28;20028;-72
2022/01/02 04:13:54;;;;;;;12.60;3.80;;;;;;;12.02;91.84;101346.63;5094701;28;20036;-72
2022/01/02 04:16:19;;;;;;;15.45;3.90;;;;;;;11.99;91.22;101348.78;5076429;28;20020;-72
2022/01/02 04:18:45;;;;;;;18.33;4.68;;;;;;;12.06;91.02;101357.44;5076406;28;20114;-73
2022/01/02 04:21:10;;;;;;;17.83;4.00;;;;;;;12.02;91.23;101353.59;5094647;28;20031;-72
2022/01/02 04:23:37;;;;;;;15.38;4.18;;;;;;;11.99;91.14;101346.19;5094470;28;20386;-72
2022/01/02 04:26:03;;;;;;;17.17;3.90;;;;;;;11.97;91.31;101338.63;5094751;28;20435;-72
2022/01/02 04:28:29;;;;;;;16.25;3.88;;;;;;;12.00;91.71;101350.38;5076240;28;20117;-71
2022/01/02 04:30:54;;;;;;;13.32;4.00;;;;;;;11.92;91.99;101330.59;5094345;28;20055;-73
2022/01/02 04:33:19;;;;;;;11.80;4.07;;;;;;;12.00;91.19;101327.06;5076170;28;20055;-72
2022/01/02 04:35:45;;;;;;;16.75;3.60;;;;;;;12.08;90.64;101326.94;5094347;28;20027;-72
2022/01/02 04:38:10;;;;;;;14.65;3.83;;;;;;;12.07;90.32;101323.56;5094850;28;20020;-72
2022/01/02 04:40:35;;;;;;;15.43;3.72;;;;;;;12.08;91.01;101326.94;5094164;28;20462;-72
2022/01/02 04:43:01;;;;;;;13.05;3.33;;;;;;;12.09;91.13;101326.78;5094139;28;20473;-72
2022/01/02 04:45:26;;;;;;;12.05;3.33;;;;;;;12.06;91.59;101329.75;5075999;28;20077;-72
2022/01/02 04:47:51;;;;;;;10.55;3.30;;;;;;;12.06;91.49;101316.78;5094263;28;20023;-72
2022/01/02 04:50:17;;;;;;;12.27;3.67;;;;;;;12.05;91.48;101306.59;5094117;28;20024;-71
2022/01/02 04:52:42;;;;;;;15.00;3.13;;;;;;;12.01;91.73;101307.97;5094063;28;20035;-72
2022/01/02 04:55:08;;;;;;;9.70;3.28;;;;;;;12.02;92.26;101300.00;5093791;28;20117;-70
2022/01/02 04:57:34;;;;;;;10.27;3.45;;;;;;;11.99;92.38;101297.78;5093880;28;20057;-70
2022/01/02 04:59:59;;;;;;;10.73;3.53;;;;;;;11.96;92.54;101282.59;5093876;28;20024;-72
2022/01/02 05:02:24;;;;;;;10.13;3.20;;;;;;;11.94;92.62;101275.03;5094105;28;20493;-72
2022/01/02 05:04:50;;;;;;;11.70;3.13;;;;;;;11.95;92.64;101270.66;5075631;28;20051;-71
2022/01/02 05:07:15;;;;;;;14.23;3.50;;;;;;;11.99;92.24;101265.91;5093737;28;20024;-71
2022/01/02 05:09:41;;;;;;;19.48;3.47;;;;;;;11.95;92.54;101255.09;5093755;28;20031;-71
2022/01/02 05:12:06;;;;;;;10.88;3.47;;;;;;;11.93;92.68;101257.06;5093646;28;20028;-71
2022/01/02 05:14:32;;;;;;;9.77;3.42;;;;;;;11.96;92.26;101252.31;5075547;28;20111;-72
2022/01/02 05:16:57;;;;;;;12.23;3.42;;;;;;;11.91;92.36;101240.91;5093619;28;20024;-72
2022/01/02 05:19:22;;;;;;;9.52;3.13;;;;;;;11.89;92.50;101227.34;5093669;28;20029;-73
2022/01/02 05:21:48;;;;;;;13.45;3.80;;;;;;;11.70;92.39;101203.63;5093094;28;20052;-73
2022/01/02 05:24:13;;;;;;;16.45;4.05;;;;;;;11.96;92.16;101231.59;5092294;28;20024;-72
2022/01/02 05:26:38;;;;;;;12.80;3.38;;;;;;;11.94;91.83;101228.41;5075492;28;20119;-72
2022/01/02 05:29:04;;;;;;;9.55;3.17;;;;;;;11.93;91.90;101223.41;5093819;28;20016;-72
2022/01/02 05:31:29;;;;;;;10.57;3.35;;;;;;;11.93;91.79;101213.84;5093403;28;20024;-72
2022/01/02 05:33:54;;;;;;;16.50;3.40;;;;;;;11.92;91.87;101204.47;5075426;28;20038;-73
2022/01/02 05:36:20;;;;;;;9.38;3.58;;;;;;;11.91;91.44;101207.22;5093290;28;20107;-72
2022/01/02 05:38:45;;;;;;;12.68;3.30;;;;;;;11.81;91.81;101186.00;5093410;28;20066;-72
2022/01/02 05:41:10;;;;;;;10.98;3.80;;;;;;;11.96;90.91;101197.94;5075335;28;20020;-71
2022/01/02 05:43:36;;;;;;;12.27;3.53;;;;;;;11.98;91.24;101189.97;5075576;28;20054;-72
2022/01/02 05:46:05;;;;;;;10.82;3.20;;;;;;;12.02;90.42;101185.22;5093334;28;20478;-72
2022/01/02 05:48:31;;;;;;;11.82;3.42;;;;;;;11.98;90.63;101171.84;5093399;28;20023;-72
2022/01/02 05:50:58;;;;;;;13.75;3.75;;;;;;;11.93;90.91;101159.44;5075146;28;20498;-73
2022/01/02 05:53:24;;;;;;;9.10;3.00;;;;;;;12.00;89.68;101164.72;5075178;28;20581;-73
2022/01/02 05:55:49;;;;;;;9.30;3.42;;;;;;;12.01;89.56;101158.53;5074954;28;20084;-72
2022/01/02 05:58:15;;;;;;;12.45;3.28;;;;;;;12.06;89.02;101160.56;5093281;28;20064;-73
2022/01/02 06:00:40;;;;;;;8.75;3.45;;;;;;;11.96;89.72;101169.44;5075138;28;20114;-72
2022/01/02 06:03:05;;;;;;;8.88;3.13;;;;;;;11.93;89.80;101153.47;5075199;28;20020;-71
2022/01/02 06:05:31;;;;;;;11.63;3.40;;;;;;;11.84;89.98;101149.38;5075034;28;20060;-73
2022/01/02 06:07:56;;;;;;;14.35;3.85;;;;;;;11.83;89.87;101137.44;5093422;28;20024;-73
2022/01/02 06:10:21;;;;;;;15.38;3.83;;;;;;;11.81;89.35;101124.66;5093156;28;20020;-72
2022/01/02 06:12:47;;;;;;;20.70;4.07;;;;;;;11.74;89.64;101127.19;5093258;28;20066;-72
2022/01/02 06:15:12;;;;;;;13.50;4.00;;;;;;;11.70;89.77;101130.34;5093130;28;20028;-72
2022/01/02 06:17:37;;;;;;;9.70;3.55;;;;;;;11.66;89.58;101118.75;5093041;28;20359;-72
2022/01/02 06:20:03;;;;;;;11.15;3.85;;;;;;;11.67;89.38;101100.44;5093599;28;20097;-72
2022/01/02 06:22:28;;;;;;;13.32;4.47;;;;;;;11.62;89.41;101102.78;5093281;28;20102;-72
2022/01/02 06:24:54;;;;;;;9.43;3.75;;;;;;;11.63;89.55;101096.63;5074869;28;20415;-72
2022/01/02 06:27:20;;;;;;;12.38;3.70;;;;;;;11.56;89.27;101088.00;5074888;28;20031;-72
2022/01/02 06:29:45;;;;;;;11.15;3.90;;;;;;;11.62;89.74;101089.84;5074805;28;20031;-72
2022/01/02 06:32:10;;;;;;;14.07;4.13;;;;;;;11.65;89.13;101088.66;5093522;28;20055;-72
2022/01/02 06:34:36;;;;;;;11.02;3.63;;;;;;;11.69;89.11;101084.72;5078497;28;20020;-72
2022/01/02 06:37:01;;;;;;;8.68;3.70;;;;;;;11.71;88.69;101078.38;5096632;28;20421;-72
2022/01/02 06:39:26;;;;;;;10.20;3.60;;;;;;;11.69;88.10;101066.59;5096740;28;20070;-71
2022/01/02 06:41:51;;;;;;;11.90;3.33;;;;;;;11.75;87.73;101056.28;5096457;28;20077;-73
2022/01/02 06:44:17;;;;;;;10.48;3.38;;;;;;;11.78;87.74;101054.34;5096710;28;20063;-72
2022/01/02 06:46:42;;;;;;;11.80;3.53;;;;;;;11.81;87.00;101044.38;5096646;28;20352;-72
2022/01/02 06:49:08;;;;;;;9.55;3.50;;;;;;;11.77;86.62;101030.22;5096830;28;20024;-72
2022/01/02 06:51:33;;;;;;;8.30;3.63;;;;;;;11.79;86.65;101033.41;5078071;28;20040;-72
2022/01/02 06:53:58;;;;;;;10.10;3.95;;;;;;;11.82;86.43;101030.44;5096752;28;20402;-73
2022/01/02 06:56:23;;;;;;;12.55;3.80;;;;;;;11.82;86.31;101021.88;5095995;28;20544;-73
2022/01/02 06:58:49;;;;;;;8.82;3.50;;;;;;;11.88;85.99;101023.75;5096417;28;20020;-73
2022/01/02 07:01:14;;;;;;;7.82;3.58;;;;;;;11.82;85.94;101012.31;5095988;28;20028;-72
2022/01/02 07:03:39;;;;;;;10.55;4.13;;;;;;;11.78;86.63;101007.72;5096333;28;20031;-72
2022/01/02 07:06:04;;;;;;;13.85;3.35;;;;;;;11.72;86.06;100991.94;5077852;28;20034;-72
2022/01/02 07:08:30;;;;;;;8.57;3.50;;;;;;;11.69;87.12;101001.91;5077834;28;20065;-72
2022/01/02 07:10:55;;;;;;;11.02;3.95;;;;;;;11.63;87.28;100992.28;5096331;28;20032;-71
2022/01/02 07:13:21;;;;;;;8.18;3.83;;;;;;;11.68;87.39;101000.28;5077786;28;20103;-72
2022/01/02 07:15:47;;;;;;;12.73;4.07;;;;;;;11.72;87.38;100998.94;5095799;28;20081;-72
2022/01/02 07:18:12;;;;;;;10.88;3.38;;;;;;;11.71;87.30;100992.94;5077630;28;20115;-73
2022/01/02 07:20:38;;;;;;;10.55;3.38;;;;;;;11.70;86.82;101004.28;5095743;28;20091;-73
2022/01/02 07:23:03;;;;;;;12.43;3.33;;;;;;;11.81;85.99;100989.22;5095936;28;20027;-73
2022/01/02 07:25:28;;;;;;;9.85;3.35;;;;;;;11.79;86.40;101001.53;5095561;28;20110;-72
2022/01/02 07:27:54;;;;;;;9.52;3.83;;;;;;;11.83;86.41;100992.44;5095571;28;20020;-73
2022/01/02 07:30:19;;;;;;;12.13;3.58;;;;;;;11.89;86.11;100994.28;5095501;28;20348;-72
2022/01/02 07:32:45;;;;;;;10.98;3.17;;;;;;;11.90;84.97;101001.06;5095423;28;20036;-72
2022/01/02 07:35:10;;;;;;;10.57;3.50;;;;;;;11.87;86.48;101006.63;5077291;28;20113;-71
2022/01/02 07:37:35;;;;;;;9.50;3.05;;;;;;;11.59;86.53;100965.97;5098032;28;20471;-75
2022/01/02 07:40:03;;;;;;;10.30;3.45;;;;;;;11.85;85.94;101001.63;5080411;28;20031;-73
2022/01/02 07:42:28;;;;;;;8.90;2.92;;;;;;;11.95;85.83;101001.28;5096893;28;20457;-72
2022/01/02 07:44:54;;;;;;;9.45;3.33;;;;;;;11.96;86.32;100998.50;5096350;28;20059;-72
2022/01/02 07:47:19;;;;;;;11.88;3.47;;;;;;;11.91;86.83;100998.28;5096599;28;20032;-72
2022/01/02 07:49:44;;;;;;;9.80;3.30;;;;;;;11.89;87.01;101012.41;5078398;28;20470;-72
2022/01/02 07:52:10;;;;;;;7.20;3.28;;;;;;;11.91;86.83;101006.06;5096609;28;20020;-72
2022/01/02 07:54:36;;;;;;;7.00;3.00;;;;;;;11.97;87.80;101020.03;5096561;28;20028;-73
2022/01/02 07:57:02;;;;;;;13.57;3.65;;;;;;;11.98;87.42;101011.28;5078929;28;20049;-74
2022/01/02 07:59:27;;;;;;;11.50;3.30;;;;;;;12.03;86.49;101016.69;5097136;28;20600;-72
2022/01/02 08:01:52;;;;;;;9.20;3.58;;;;;;;11.94;86.89;101028.19;5095825;28;20043;-72
2022/01/02 08:04:19;;;;;;;9.20;3.55;;;;;;;12.04;86.93;101023.47;5097235;28;20447;-73
2022/01/02 08:06:44;;;;;;;6.05;3.30;;;;;;;12.02;86.90;100999.53;5097322;28;20039;-74
2022/01/02 08:09:10;;;;;;;11.30;3.50;;;;;;;11.91;86.93;101011.25;5094931;28;20020;-73
2022/01/02 08:11:35;;;;;;;9.68;3.75;;;;;;;11.96;87.19;101011.44;5095961;28;20462;-74
2022/01/02 08:14:00;;;;;;;7.30;3.20;;;;;;;11.88;87.24;101011.63;5078813;28;20020;-72
2022/01/02 08:16:26;;;;;;;10.77;3.42;;;;;;;11.91;86.81;101013.84;5096136;28;20074;-73
2022/01/02 08:18:51;;;;;;;8.63;3.30;;;;;;;11.87;87.24;101006.63;5077609;28;20480;-74
2022/01/02 08:21:17;;;;;;;9.38;3.38;;;;;;;11.86;87.60;101025.75;5096178;28;20012;-72
2022/01/02 08:23:42;;;;;;;11.52;3.63;;;;;;;11.91;87.04;101023.34;5077622;28;20120;-73
2022/01/02 08:26:07;;;;;;;9.57;3.58;;;;;;;11.92;87.53;101019.81;5076393;28;20023;-72
2022/01/02 08:28:34;;;;;;;10.02;3.30;;;;;;;11.90;87.89;101016.59;5094326;28;20059;-71
2022/01/02 08:30:59;;;;;;;7.60;3.72;;;;;;;11.82;88.49;101012.31;5094148;28;20082;-72
2022/01/02 08:33:24;;;;;;;11.15;3.70;;;;;;;11.84;88.86;101012.16;5094310;28;20031;-72
2022/01/02 08:35:50;;;;;;;10.70;3.58;;;;;;;11.87;88.45;101011.78;5076896;28;20051;-73
2022/01/02 08:38:15;;;;;;;7.60;3.33;;;;;;;11.85;88.44;101004.19;5094869;28;20103;-72
2022/01/02 08:40:41;;;;;;;14.38;3.50;;;;;;;11.86;88.85;101000.66;5094182;28;20030;-72
2022/01/02 08:43:08;;;;;;;9.75;3.40;;;;;;;11.83;88.95;100998.41;5094132;28;20030;-72
2022/01/02 08:45:35;;;;;;;7.53;3.50;;;;;;;11.85;89.07;100999.03;5094395;28;20471;-73
2022/01/02 08:48:00;;;;;;;9.07;3.30;;;;;;;11.79;89.02;101001.53;5075982;28;20016;-72
2022/01/02 08:50:26;;;;;;;9.88;3.60;;;;;;;11.87;88.86;101007.41;5093960;28;20081;-72
2022/01/02 08:52:51;;;;;;;11.70;3.90;;;;;;;11.86;88.77;101008.41;5093918;28;20477;-72
2022/01/02 08:55:16;;;;;;;12.05;3.60;;;;;;;11.71;88.38;100990.38;5093153;28;20130;-73
2022/01/02 08:57:42;;;;;;;7.88;4.03;;;;;;;11.81;88.22;101018.50;5075830;28;20023;-72
2022/01/02 09:00:09;;;;;;;9.75;3.60;;;;;;;11.81;87.71;101007.34;5075855;28;20466;-72
2022/01/02 09:02:35;;;;;;;7.32;3.58;;;;;;;11.79;87.61;100988.59;5093791;28;20034;-73
2022/01/02 09:05:00;;;;;;;7.60;3.83;;;;;;;11.82;87.53;100998.56;5094367;28;20107;-72
2022/01/02 09:07:25;;;;;;;8.13;4.20;;;;;;;11.90;86.41;101008.81;5075719;28;20055;-72
2022/01/02 09:09:50;;;;;;;10.55;3.85;;;;;;;11.96;85.82;101001.09;5093752;28;20449;-72
2022/01/02 09:12:16;;;;;;;10.07;3.85;;;;;;;12.03;85.30;100995.16;5093656;28;20055;-72
2022/01/02 09:14:42;;;;;;;11.88;3.90;;;;;;;12.15;84.16;100997.03;5093742;28;20387;-72
2022/01/02 09:17:07;;;;;;;8.18;4.05;;;;;;;12.34;83.16;101008.47;5093536;28;20462;-73
2022/01/02 09:19:33;;;;;;;9.30;4.00;;;;;;;12.47;83.17;100992.16;5075502;28;20031;-72
2022/01/02 09:21:58;;;;;;;10.25;4.10;;;;;;;12.37;80.75;100995.13;5094416;28;20423;-73
2022/01/02 09:24:23;;;;;;;12.13;4.00;;;;;;;12.54;80.56;100998.16;5078715;28;20114;-72
2022/01/02 09:26:49;;;;;;;10.63;4.00;;;;;;;12.57;80.74;100991.78;5075421;28;20126;-72
2022/01/02 09:29:14;;;;;;;10.10;3.78;;;;;;;12.48;81.25;100987.78;5093446;28;20020;-73
2022/01/02 09:31:40;;;;;;;13.30;4.20;;;;;;;12.57;80.68;101003.00;5093291;28;20024;-73
2022/01/02 09:34:05;;;;;;;11.90;4.30;;;;;;;12.37;80.83;100996.91;5093298;28;20028;-72
2022/01/02 09:36:31;;;;;;;9.95;4.25;;;;;;;12.47;81.24;101009.53;5075293;28;20463;-73
2022/01/02 09:38:57;;;;;;;9.23;4.10;;;;;;;12.57;80.77;101005.59;5093930;28;20451;-72
2022/01/02 09:41:22;;;;;;;8.35;4.38;;;;;;;12.64;80.65;101014.16;5093185;28;20012;-72
2022/01/02 09:43:48;;;;;;;9.15;4.18;;;;;;;12.41;80.58;100998.13;5093256;28;20031;-70
2022/01/02 09:46:24;;;;;;;12.85;4.40;;;;;;;12.27;81.77;101020.59;5075104;28;20429;-74
2022/01/02 09:48:51;;;;;;;10.75;4.72;;;;;;;12.20;82.38;101019.78;5074992;28;20027;-73
2022/01/02 09:51:19;;;;;;;13.57;4.68;;;;;;;12.12;81.90;101017.34;5093144;28;20027;-73
2022/01/02 09:53:46;;;;;;;9.85;4.55;;;;;;;12.11;81.96;101006.19;5075229;28;20062;-72
2022/01/02 09:56:12;;;;;;;16.45;4.75;;;;;;;12.27;81.57;101012.81;5093030;28;20055;-73
2022/01/02 09:58:40;;;;;;;10.25;4.30;;;;;;;12.27;81.64;101010.22;5074997;28;20116;-72
2022/01/02 10:01:06;;;;;;;14.05;4.70;;;;;;;12.06;82.92;101011.13;5074941;28;20024;-72
2022/01/02 10:03:45;;;;;;;9.98;4.50;;;;;;;12.02;82.98;101009.88;5093203;28;20070;-73
2022/01/02 10:06:10;;;;;;;11.05;4.53;;;;;;;11.95;83.94;101006.47;5075231;28;20418;-73
2022/01/02 10:08:36;;;;;;;13.18;4.50;;;;;;;12.03;82.61;101018.47;5078863;28;20024;-73
2022/01/02 10:11:05;;;;;;;12.98;4.47;;;;;;;12.08;82.50;101016.09;5096769;28;20130;-72
2022/01/02 10:13:41;;;;;;;13.20;4.78;;;;;;;12.08;83.25;101013.50;5097141;28;20023;-73
2022/01/02 10:16:31;;;;;;;15.48;5.10;;;;;;;12.21;82.11;101008.41;5096884;28;20406;-72
2022/01/02 10:18:58;;;;;;;10.48;4.50;;;;;;;12.10;82.88;101029.66;5096793;28;20407;-73
2022/01/02 10:21:37;;;;;;;15.70;4.65;;;;;;;12.04;83.92;101015.69;5096788;28;20034;-73
2022/01/02 10:24:21;;;;;;;11.27;4.25;;;;;;;11.93;83.20;101009.25;5095461;28;20024;-72
2022/01/02 10:27:06;;;;;;;12.65;4.43;;;;;;;11.83;83.89;101005.38;5096757;28;20030;-72
2022/01/02 10:29:39;;;;;;;12.52;4.25;;;;;;;11.59;84.16;100970.34;5097009;28;20476;-72
2022/01/02 10:32:28;;;;;;;15.38;4.90;;;;;;;11.90;83.85;100999.25;5096477;28;20024;-72
2022/01/02 10:35:07;;;;;;;11.55;4.13;;;;;;;11.88;84.51;100998.66;5077492;28;20385;-72
2022/01/02 10:37:32;;;;;;;10.05;4.43;;;;;;;11.90;84.59;101011.41;5096573;28;20466;-73
2022/01/02 10:39:57;;;;;;;10.60;4.28;;;;;;;11.89;84.13;101004.66;5078068;28;20074;-72
2022/01/02 10:42:23;;;;;;;14.65;4.78;;;;;;;11.90;84.40;101001.84;5096267;28;20084;-73
2022/01/02 10:44:49;;;;;;;16.40;5.45;;;;;;;11.76;84.70;100994.94;5078077;28;20020;-72
2022/01/02 10:47:17;;;;;;;12.82;4.65;;;;;;;11.87;85.10;101006.63;5078124;28;20056;-71
2022/01/02 10:50:03;;;;;;;12.13;4.30;;;;;;;11.93;85.37;101008.44;5096232;28;20127;-73
2022/01/02 10:52:42;;;;;;;15.05;4.75;;;;;;;11.86;84.79;101007.63;5096325;28;20042;-72
2022/01/02 10:55:18;;;;;;;10.75;4.55;;;;;;;11.89;84.91;101007.22;5096348;28;20068;-71
2022/01/02 10:57:48;;;;;;;14.13;4.45;;;;;;;11.91;85.06;101018.19;5078155;28;20398;-73
2022/01/02 11:00:19;;;;;;;15.13;4.70;;;;;;;12.02;84.61;101016.88;5077205;28;20023;-71
2022/01/02 11:02:45;;;;;;;14.85;4.50;;;;;;;11.99;85.33;101012.84;5077869;28;20429;-73
2022/01/02 11:05:14;;;;;;;11.95;4.10;;;;;;;12.08;85.00;101019.47;5096905;28;20489;-72
2022/01/02 11:07:43;;;;;;;14.75;4.07;;;;;;;12.05;84.48;101019.06;5095813;28;20360;-72
2022/01/02 11:10:10;;;;;;;11.82;4.13;;;;;;;12.08;84.96;100998.75;5095783;28;20031;-72
2022/01/02 11:12:38;;;;;;;13.10;4.00;;;;;;;12.15;83.98;101019.53;5077665;28;20032;-73
2022/01/02 11:15:06;;;;;;;18.05;4.20;;;;;;;12.19;84.02;101015.56;5077562;28;20051;-73
2022/01/02 11:17:35;;;;;;;15.70;3.92;;;;;;;12.26;84.12;101013.03;5095862;28;20063;-73
2022/01/02 11:20:10;;;;;;;13.95;3.67;;;;;;;12.24;84.61;101008.03;5095258;28;20052;-73
2022/01/02 11:23:07;;;;;;;18.98;3.92;;;;;;;12.21;84.61;101007.63;5077607;28;20019;-72
2022/01/02 11:25:36;;;;;;;14.00;3.83;;;;;;;12.22;83.84;101004.81;5061039;28;20106;-72